Time;durP1;ratioP1;P1;durP2;ratioP2;P2;SDS_P1;SDS_P2;PMS_P1;PMS_P2;Temp;Humidity;BMP_temperature;BMP_pressure;BME280_temperature;BME280_humidity;BME280_pressure;Samples;Min_cycle;Max_cycle;Signal;HPM_P1;HPM_P2
2024/04/01 00:02:20;;;;;;;5.97;2.40;;;;;;;14.86;52.33;96535.94;5054500;28;20205;-82
2024/04/01 00:04:47;;;;;;;6.63;2.67;;;;;;;15.07;51.63;96542.25;5053861;28;20198;-82
2024/04/01 00:07:13;;;;;;;9.50;2.90;;;;;;;14.66;52.07;96495.25;5053847;28;20215;-82
2024/04/01 00:09:39;;;;;;;7.33;2.50;;;;;;;14.95;53.11;96527.91;5048261;28;20222;-82
2024/04/01 00:12:07;;;;;;;6.33;2.33;;;;;;;14.76;52.28;96522.84;5046089;28;20202;-82
2024/04/01 00:14:34;;;;;;;11.00;2.73;;;;;;;14.75;52.34;96519.41;5053937;28;20197;-82
2024/04/01 00:17:00;;;;;;;6.13;3.10;;;;;;;14.76;51.87;96498.75;5054264;28;20203;-82
2024/04/01 00:19:27;;;;;;;10.83;3.03;;;;;;;14.80;52.14;96524.59;5053472;28;20207;-82
2024/04/01 00:21:53;;;;;;;6.77;3.23;;;;;;;14.57;52.97;96509.75;5054455;28;20204;-82
2024/04/01 00:24:20;;;;;;;6.43;3.10;;;;;;;14.66;53.04;96513.22;5053863;28;20197;-82
2024/04/01 00:26:46;;;;;;;7.73;2.70;;;;;;;14.79;52.64;96509.63;5053709;28;20204;-81
2024/04/01 00:29:14;;;;;;;7.23;3.50;;;;;;;14.81;52.14;96522.69;5040087;28;20225;-82
2024/04/01 00:31:40;;;;;;;7.93;2.93;;;;;;;14.85;52.29;96527.09;5053518;28;20209;-82
2024/04/01 00:34:07;;;;;;;9.67;3.37;;;;;;;14.78;52.45;96518.75;5033727;28;20206;-82
2024/04/01 00:36:33;;;;;;;7.93;1.87;;;;;;;14.82;52.04;96525.03;5046865;28;20198;-82
2024/04/01 00:38:59;;;;;;;4.80;2.57;;;;;;;14.86;52.26;96525.22;5033970;28;20743;-82
2024/04/01 00:41:26;;;;;;;6.87;3.30;;;;;;;14.64;52.67;96510.88;5033682;28;20198;-82
2024/04/01 00:43:53;;;;;;;7.47;2.97;;;;;;;14.57;53.21;96517.78;5053557;28;20282;-82
2024/04/01 00:46:21;;;;;;;8.37;3.00;;;;;;;14.29;54.45;96515.34;5053038;28;20202;-82
2024/04/01 00:48:50;;;;;;;7.00;2.67;;;;;;;14.41;54.44;96520.09;5053074;28;20253;-82
2024/04/01 00:51:16;;;;;;;9.83;2.47;;;;;;;14.44;54.11;96525.63;5052814;28;20209;-82
2024/04/01 00:53:45;;;;;;;10.77;3.10;;;;;;;14.30;54.21;96490.13;5033350;28;20623;-81
2024/04/01 00:56:11;;;;;;;8.57;2.47;;;;;;;14.50;53.92;96518.25;5033984;28;20213;-82
2024/04/01 00:58:39;;;;;;;10.77;3.27;;;;;;;14.54;53.52;96515.72;5053354;28;20339;-82
2024/04/01 01:01:07;;;;;;;9.70;3.20;;;;;;;14.57;53.76;96515.13;5052965;28;20223;-82
2024/04/01 01:03:36;;;;;;;9.70;3.00;;;;;;;14.47;53.87;96515.38;5052942;28;20287;-82
2024/04/01 01:06:02;;;;;;;7.13;3.83;;;;;;;14.35;54.46;96522.13;5052881;28;20201;-82
2024/04/01 01:08:29;;;;;;;8.40;2.87;;;;;;;14.37;54.49;96511.91;5052155;28;20231;-82
2024/04/01 01:10:56;;;;;;;11.20;4.07;;;;;;;14.11;54.26;96482.38;5052522;28;20209;-82
2024/04/01 01:13:23;;;;;;;6.03;2.60;;;;;;;14.36;54.19;96515.66;5052882;28;20228;-82
2024/04/01 01:15:49;;;;;;;7.17;3.10;;;;;;;14.36;54.40;96518.34;5052880;28;20803;-82
2024/04/01 01:18:16;;;;;;;4.63;2.27;;;;;;;14.39;54.49;96506.22;5052430;28;20207;-81
2024/04/01 01:20:43;;;;;;;11.33;2.93;;;;;;;14.33;54.65;96512.84;5052951;28;20195;-82
2024/04/01 01:23:11;;;;;;;6.20;3.10;;;;;;;14.28;54.58;96505.72;5052823;28;20713;-82
2024/04/01 01:25:38;;;;;;;7.07;3.37;;;;;;;14.13;54.89;96506.97;5052358;28;20656;-82
2024/04/01 01:28:06;;;;;;;9.27;2.60;;;;;;;13.91;55.51;96486.41;5053044;28;20338;-82
2024/04/01 01:30:35;;;;;;;8.20;3.00;;;;;;;13.82;55.81;96498.97;5048131;28;20687;-82
2024/04/01 01:33:04;;;;;;;13.10;3.00;;;;;;;13.88;55.74;96491.59;5043644;28;20204;-82
2024/04/01 01:35:31;;;;;;;6.73;2.47;;;;;;;13.91;55.57;96499.78;5052287;28;20197;-82
2024/04/01 01:37:59;;;;;;;9.90;4.10;;;;;;;13.76;56.09;96504.75;5052452;28;20616;-82
2024/04/01 01:40:26;;;;;;;9.53;2.60;;;;;;;13.92;55.71;96503.25;5052209;28;20204;-83
2024/04/01 01:42:53;;;;;;;6.43;2.57;;;;;;;13.98;55.52;96506.56;5052670;28;20204;-82
2024/04/01 01:45:19;;;;;;;10.07;2.53;;;;;;;13.99;55.65;96498.25;5052309;28;20226;-82
2024/04/01 01:47:46;;;;;;;8.90;3.10;;;;;;;13.87;55.43;96474.75;5052336;28;20208;-82
2024/04/01 01:50:12;;;;;;;5.40;3.00;;;;;;;13.98;55.64;96502.03;5052089;28;20227;-82
2024/04/01 01:52:39;;;;;;;6.67;2.83;;;;;;;13.90;56.18;96500.06;5052329;28;20732;-82
2024/04/01 01:55:05;;;;;;;7.23;2.97;;;;;;;13.61;56.81;96500.59;5045744;28;20732;-81
2024/04/01 01:57:34;;;;;;;6.13;2.60;;;;;;;13.57;56.84;96495.06;5032096;28;20590;-82
2024/04/01 02:00:01;;;;;;;9.23;3.20;;;;;;;13.62;56.55;96500.28;5039156;28;20680;-82
2024/04/01 02:02:27;;;;;;;8.43;3.40;;;;;;;13.90;56.15;96506.25;5051434;28;20265;-82
2024/04/01 02:04:53;;;;;;;9.53;3.03;;;;;;;13.74;56.35;96502.38;5052256;28;20223;-81
2024/04/01 02:07:20;;;;;;;8.40;3.93;;;;;;;13.69;56.75;96497.97;5052133;28;20681;-82
2024/04/01 02:09:46;;;;;;;8.90;2.90;;;;;;;13.85;56.43;96495.66;5051556;28;20219;-82
2024/04/01 02:12:12;;;;;;;5.87;2.83;;;;;;;13.99;55.71;96497.47;5052131;28;20207;-82
2024/04/01 02:14:40;;;;;;;8.03;3.10;;;;;;;14.00;56.02;96494.47;5051702;28;20209;-82
2024/04/01 02:17:08;;;;;;;6.57;2.70;;;;;;;13.43;56.56;96446.22;5051611;28;20199;-81
2024/04/01 02:19:35;;;;;;;11.10;3.53;;;;;;;13.74;56.78;96497.03;5031865;28;20224;-82
2024/04/01 02:22:03;;;;;;;8.90;2.97;;;;;;;13.48;56.95;96485.44;5044829;28;20284;-82
2024/04/01 02:24:30;;;;;;;5.57;2.90;;;;;;;13.69;57.01;96502.53;5031419;28;20201;-82
2024/04/01 02:26:56;;;;;;;15.63;4.40;;;;;;;13.51;57.47;96493.63;5032605;28;20283;-82
2024/04/01 02:29:23;;;;;;;4.70;2.93;;;;;;;13.39;57.87;96496.84;5051319;28;20310;-82
2024/04/01 02:31:50;;;;;;;9.10;3.07;;;;;;;13.17;58.87;96491.53;5051724;28;20257;-82
2024/04/01 02:34:17;;;;;;;5.80;2.87;;;;;;;13.22;58.62;96489.50;5051424;28;20211;-82
2024/04/01 02:36:42;;;;;;;7.77;3.20;;;;;;;13.34;58.71;96488.97;5051232;28;20206;-82
2024/04/01 02:39:16;;;;;;;7.40;2.60;;;;;;;13.41;58.05;96492.00;5042639;28;20207;-82
2024/04/01 02:41:42;;;;;;;6.97;3.13;;;;;;;13.30;58.76;96492.56;5047523;28;20225;-82
2024/04/01 02:44:09;;;;;;;6.00;3.13;;;;;;;13.39;58.69;96498.75;5051700;28;20563;-82
2024/04/01 02:46:35;;;;;;;7.43;3.10;;;;;;;13.19;58.54;96474.06;5050745;28;20678;-82
2024/04/01 02:49:04;;;;;;;8.10;3.90;;;;;;;13.54;57.52;96502.91;5051212;28;20239;-82
2024/04/01 02:51:30;;;;;;;7.53;3.60;;;;;;;13.60;57.08;96499.03;5051351;28;20199;-82
2024/04/01 02:53:56;;;;;;;8.87;2.60;;;;;;;13.37;57.83;96488.38;5050754;28;20202;-83
2024/04/01 02:56:22;;;;;;;8.13;3.37;;;;;;;13.07;58.96;96481.06;5050732;28;20250;-82
2024/04/01 02:58:50;;;;;;;4.60;3.07;;;;;;;12.90;59.15;96442.47;5051026;28;20230;-82
2024/04/01 03:01:15;;;;;;;12.37;4.13;;;;;;;13.17;59.31;96486.97;5050467;28;20194;-82
2024/04/01 03:03:42;;;;;;;4.70;3.10;;;;;;;13.07;59.64;96478.41;5051396;28;20202;-82
2024/04/01 03:06:09;;;;;;;6.97;3.13;;;;;;;13.07;59.75;96483.75;5050347;28;20195;-82
2024/04/01 03:08:38;;;;;;;8.77;4.00;;;;;;;13.11;59.74;96485.50;5050965;28;20396;-82
2024/04/01 03:11:04;;;;;;;6.07;3.00;;;;;;;13.17;59.34;96484.28;5050605;28;20198;-82
2024/04/01 03:13:31;;;;;;;11.43;3.73;;;;;;;13.27;59.14;96485.16;5050750;28;20197;-82
2024/04/01 03:15:57;;;;;;;7.77;3.30;;;;;;;13.29;59.14;96486.44;5050430;28;20206;-83
2024/04/01 03:18:25;;;;;;;9.40;3.20;;;;;;;13.17;59.51;96499.53;5050624;28;20201;-82
2024/04/01 03:20:52;;;;;;;11.00;4.67;;;;;;;12.98;59.83;96481.78;5050375;28;20574;-82
2024/04/01 03:23:20;;;;;;;12.90;5.93;;;;;;;13.32;59.23;96491.16;5050903;28;20202;-82
2024/04/01 03:25:50;;;;;;;23.90;13.67;;;;;;;13.16;59.11;96503.28;5049848;28;20205;-82
2024/04/01 03:28:19;;;;;;;8.17;4.50;;;;;;;12.77;59.74;96461.19;5051381;28;20206;-81
2024/04/01 03:30:45;;;;;;;15.53;4.40;;;;;;;13.02;60.11;96497.22;5054549;28;20340;-82
2024/04/01 03:33:13;;;;;;;8.83;3.63;;;;;;;12.94;60.26;96496.06;5057393;28;20240;-82
2024/04/01 03:35:39;;;;;;;8.57;3.03;;;;;;;12.81;60.58;96495.00;5057127;28;20259;-82
2024/04/01 03:38:06;;;;;;;8.50;2.60;;;;;;;12.91;60.32;96492.13;5056911;28;20603;-82
2024/04/01 03:40:38;;;;;;;17.80;4.17;;;;;;;13.11;60.31;96503.41;5057052;28;20198;-82
2024/04/01 03:43:05;;;;;;;8.57;2.90;;;;;;;13.10;59.89;96501.84;5057229;28;20202;-82
2024/04/01 03:45:33;;;;;;;10.03;3.13;;;;;;;13.16;60.05;96509.44;5056854;28;20692;-82
2024/04/01 03:47:59;;;;;;;10.83;3.87;;;;;;;13.20;59.56;96505.06;5057404;28;20201;-83
2024/04/01 03:50:25;;;;;;;29.77;19.23;;;;;;;12.92;60.20;96506.25;5057190;28;20228;-82
2024/04/01 03:52:52;;;;;;;11.53;4.93;;;;;;;12.53;60.32;96445.47;5057142;28;20206;-82
2024/04/01 03:55:19;;;;;;;10.20;3.30;;;;;;;12.44;60.52;96438.19;5057153;28;20216;-82
2024/04/01 03:57:47;;;;;;;7.83;3.00;;;;;;;12.76;60.88;96495.13;5056915;28;20202;-82
2024/04/01 04:00:14;;;;;;;4.83;2.87;;;;;;;12.82;61.01;96498.50;5057294;28;20275;-82
2024/04/01 04:02:42;;;;;;;7.60;3.63;;;;;;;12.76;60.79;96468.44;5056814;28;20292;-82
2024/04/01 04:05:09;;;;;;;11.27;3.20;;;;;;;13.01;60.27;96506.31;5056367;28;20201;-82
2024/04/01 04:07:35;;;;;;;7.03;3.10;;;;;;;12.94;60.55;96501.41;5055793;28;20213;-82
2024/04/01 04:10:04;;;;;;;9.17;3.13;;;;;;;13.04;60.46;96503.03;5045266;28;20300;-82
2024/04/01 04:12:31;;;;;;;11.33;4.77;;;;;;;12.92;60.49;96504.38;5043280;28;20290;-82
2024/04/01 04:14:59;;;;;;;13.43;4.00;;;;;;;12.87;60.69;96506.38;5048207;28;20662;-82
2024/04/01 04:17:25;;;;;;;7.20;3.17;;;;;;;13.00;60.57;96508.19;5039155;28;20199;-82
2024/04/01 04:19:52;;;;;;;6.43;2.90;;;;;;;13.21;59.47;96517.31;5056698;28;20195;-82
2024/04/01 04:22:19;;;;;;;8.53;3.53;;;;;;;13.18;59.80;96522.50;5057226;28;20551;-82
2024/04/01 04:24:46;;;;;;;8.63;3.47;;;;;;;13.06;60.13;96519.56;5056478;28;20202;-81
2024/04/01 04:27:12;;;;;;;7.10;2.77;;;;;;;13.06;60.08;96525.69;5053776;28;20210;-81
2024/04/01 04:29:38;;;;;;;7.27;3.37;;;;;;;13.15;59.62;96517.75;5046385;28;20221;-81
2024/04/01 04:32:11;;;;;;;7.50;3.00;;;;;;;13.17;59.36;96521.69;5043109;28;20218;-82
2024/04/01 04:34:38;;;;;;;10.73;2.83;;;;;;;13.02;59.90;96526.63;5056746;28;20290;-81
2024/04/01 04:37:06;;;;;;;10.70;3.67;;;;;;;13.06;60.36;96531.03;5056646;28;20208;-81
2024/04/01 04:39:33;;;;;;;7.90;2.80;;;;;;;12.95;60.77;96535.03;5056824;28;20210;-82
2024/04/01 04:41:59;;;;;;;4.40;2.80;;;;;;;12.93;61.38;96527.34;5054788;28;20202;-82
2024/04/01 04:44:25;;;;;;;6.10;3.03;;;;;;;12.98;61.44;96523.75;5053049;28;20206;-81
2024/04/01 04:46:51;;;;;;;5.93;3.47;;;;;;;13.11;61.07;96538.94;5053130;28;20201;-82
2024/04/01 04:49:20;;;;;;;11.60;3.37;;;;;;;13.02;61.19;96523.94;5052942;28;20222;-82
2024/04/01 04:51:46;;;;;;;7.37;3.40;;;;;;;13.14;61.31;96542.91;5048664;28;20199;-81
2024/04/01 04:54:13;;;;;;;8.30;3.60;;;;;;;13.30;61.08;96536.13;5044579;28;20202;-82
2024/04/01 04:56:39;;;;;;;8.80;3.53;;;;;;;13.63;60.52;96538.53;5053168;28;20196;-82
2024/04/01 04:59:06;;;;;;;10.80;3.43;;;;;;;13.62;59.95;96539.59;5053292;28;20755;-82
2024/04/01 05:01:32;;;;;;;10.80;2.90;;;;;;;13.54;60.10;96545.69;5053055;28;20203;-82
2024/04/01 05:03:59;;;;;;;9.30;3.60;;;;;;;13.66;60.49;96538.69;5053077;28;20208;-82
2024/04/01 05:06:26;;;;;;;9.70;3.60;;;;;;;13.91;60.29;96545.28;5052499;28;20569;-81
2024/04/01 05:08:54;;;;;;;10.20;3.13;;;;;;;14.12;59.58;96548.19;5053112;28;20194;-82
2024/04/01 05:11:20;;;;;;;13.07;3.70;;;;;;;14.17;59.32;96540.03;5052697;28;20260;-81
2024/04/01 05:13:46;;;;;;;9.00;5.60;;;;;;;14.20;59.11;96544.75;5053175;28;20201;-81
2024/04/01 05:16:15;;;;;;;6.50;3.33;;;;;;;14.12;58.99;96513.38;5052456;28;20205;-82
2024/04/01 05:18:42;;;;;;;9.30;3.40;;;;;;;14.40;58.90;96546.09;5052866;28;20294;-81
2024/04/01 05:21:08;;;;;;;7.40;3.13;;;;;;;14.38;58.49;96536.78;5052763;28;20728;-81
2024/04/01 05:23:36;;;;;;;15.87;4.07;;;;;;;14.48;58.19;96544.53;5052799;28;20199;-83
2024/04/01 05:26:02;;;;;;;9.80;2.80;;;;;;;14.62;58.27;96547.88;5039471;28;20199;-82
2024/04/01 05:28:29;;;;;;;8.40;3.50;;;;;;;14.77;57.70;96543.97;5052797;28;20204;-82
2024/04/01 05:30:55;;;;;;;6.73;4.93;;;;;;;14.65;57.69;96539.22;5052847;28;20220;-81
2024/04/01 05:33:22;;;;;;;9.67;4.50;;;;;;;14.57;58.97;96531.97;5052922;28;20221;-81
2024/04/01 05:35:48;;;;;;;10.80;4.60;;;;;;;14.65;58.87;96543.78;5052520;28;20841;-81
2024/04/01 05:38:15;;;;;;;6.47;4.17;;;;;;;14.84;58.08;96538.94;5052361;28;20680;-82
2024/04/01 05:40:42;;;;;;;11.17;5.73;;;;;;;14.89;57.96;96535.31;5052560;28;20208;-81
2024/04/01 05:43:09;;;;;;;14.87;6.07;;;;;;;14.84;57.57;96535.47;5051922;28;20228;-82
2024/04/01 05:45:35;;;;;;;15.50;7.37;;;;;;;15.03;56.17;96532.47;5052314;28;20230;-80
2024/04/01 05:48:03;;;;;;;26.03;6.07;;;;;;;15.00;55.95;96538.47;5052165;28;20216;-82
2024/04/01 05:50:29;;;;;;;15.10;5.10;;;;;;;15.12;55.93;96534.03;5052360;28;20225;-83
2024/04/01 05:52:56;;;;;;;21.27;6.97;;;;;;;15.30;55.04;96532.16;5050024;28;20200;-82
2024/04/01 05:55:21;;;;;;;20.63;7.10;;;;;;;15.44;55.93;96531.94;5032308;28;20216;-81
2024/04/01 05:57:50;;;;;;;22.73;9.53;;;;;;;15.60;56.24;96538.41;5047049;28;20288;-81
2024/04/01 06:00:16;;;;;;;10.40;6.07;;;;;;;15.64;55.90;96549.28;5052372;28;20279;-81
2024/04/01 06:02:42;;;;;;;13.43;4.83;;;;;;;15.80;54.20;96539.66;5051822;28;20637;-81
2024/04/01 06:05:08;;;;;;;17.37;5.93;;;;;;;15.96;53.45;96539.91;5051820;28;20205;-81
2024/04/01 06:07:35;;;;;;;16.97;4.30;;;;;;;16.04;52.68;96532.94;5051866;28;20206;-81
2024/04/01 06:10:01;;;;;;;11.17;4.10;;;;;;;16.09;53.16;96541.59;5051473;28;20585;-82
2024/04/01 06:12:28;;;;;;;9.97;3.47;;;;;;;16.12;52.66;96538.25;5051529;28;20202;-81
2024/04/01 06:14:55;;;;;;;14.60;6.50;;;;;;;16.22;52.40;96542.47;5043031;28;20206;-81
2024/04/01 06:17:22;;;;;;;12.73;3.33;;;;;;;16.42;52.38;96542.84;5045544;28;20210;-81
2024/04/01 06:19:48;;;;;;;14.57;5.20;;;;;;;16.34;54.68;96545.28;5031597;28;20624;-81
2024/04/01 06:22:15;;;;;;;13.20;4.23;;;;;;;16.17;54.74;96533.81;5033238;28;20207;-81
2024/04/01 06:24:41;;;;;;;10.97;5.20;;;;;;;16.33;54.80;96543.69;5051721;28;20206;-81
2024/04/01 06:27:08;;;;;;;7.77;4.53;;;;;;;16.52;53.71;96540.59;5049562;28;20217;-81
2024/04/01 06:29:34;;;;;;;12.50;5.20;;;;;;;16.53;53.42;96544.06;5031685;28;20245;-81
2024/04/01 06:32:02;;;;;;;13.37;4.47;;;;;;;16.80;52.07;96534.75;5033877;28;20582;-81
2024/04/01 06:34:28;;;;;;;15.30;4.70;;;;;;;17.13;52.04;96539.41;5051368;28;20205;-81
2024/04/01 06:36:55;;;;;;;9.43;3.97;;;;;;;17.43;50.95;96542.78;5051126;28;20224;-81
2024/04/01 06:39:21;;;;;;;15.83;5.43;;;;;;;17.63;50.35;96549.25;5051346;28;20205;-81
2024/04/01 06:41:47;;;;;;;11.20;3.93;;;;;;;17.68;49.20;96549.03;5048331;28;20529;-80
2024/04/01 06:44:13;;;;;;;9.67;4.53;;;;;;;17.73;48.34;96521.88;5040477;28;20203;-80
2024/04/01 06:46:40;;;;;;;14.23;3.73;;;;;;;18.11;47.81;96547.78;5051023;28;20203;-80
2024/04/01 06:49:07;;;;;;;11.43;3.50;;;;;;;18.18;48.17;96523.78;5051039;28;20209;-81
2024/04/01 06:51:34;;;;;;;8.60;3.93;;;;;;;18.48;47.95;96540.50;5050842;28;20260;-81
2024/04/01 06:54:00;;;;;;;6.60;3.37;;;;;;;18.58;48.06;96540.84;5051204;28;20197;-81
2024/04/01 06:56:27;;;;;;;15.73;4.93;;;;;;;18.81;47.20;96527.66;5050959;28;20667;-80
2024/04/01 06:58:53;;;;;;;6.50;3.67;;;;;;;19.14;45.56;96550.97;5051017;28;20225;-80
2024/04/01 07:01:20;;;;;;;10.63;3.87;;;;;;;19.36;44.85;96544.28;5050495;28;20613;-80
2024/04/01 07:03:46;;;;;;;7.80;3.60;;;;;;;19.81;44.12;96543.16;5050925;28;20194;-80
2024/04/01 07:06:14;;;;;;;9.47;4.37;;;;;;;19.90;43.10;96537.59;5049738;28;20680;-80
2024/04/01 07:08:40;;;;;;;8.40;4.03;;;;;;;20.25;42.91;96540.38;5051120;28;20193;-80
2024/04/01 07:11:07;;;;;;;9.87;3.83;;;;;;;20.36;42.27;96527.13;5050670;28;20245;-80
2024/04/01 07:13:32;;;;;;;10.87;3.70;;;;;;;20.48;41.50;96537.84;5040098;28;20206;-81
2024/04/01 07:15:59;;;;;;;6.40;3.40;;;;;;;20.59;41.87;96538.91;5047688;28;20343;-80
2024/04/01 07:18:25;;;;;;;9.70;3.50;;;;;;;20.66;41.49;96532.88;5050738;28;20256;-80
2024/04/01 07:20:52;;;;;;;8.37;3.63;;;;;;;20.71;41.97;96541.47;5050629;28;20500;-80
2024/04/01 07:23:20;;;;;;;5.23;3.00;;;;;;;20.69;40.72;96543.78;5050514;28;20672;-80
2024/04/01 07:25:47;;;;;;;8.03;3.93;;;;;;;20.90;41.36;96539.97;5050497;28;20248;-80
2024/04/01 07:28:12;;;;;;;7.97;3.73;;;;;;;20.79;41.35;96522.72;5051052;28;20635;-80
2024/04/01 07:30:39;;;;;;;13.10;4.90;;;;;;;20.92;41.13;96552.00;5050548;28;20304;-80
2024/04/01 07:33:05;;;;;;;11.63;3.90;;;;;;;21.09;41.28;96542.69;5050388;28;20198;-80
2024/04/01 07:35:35;;;;;;;7.23;3.20;;;;;;;21.28;40.49;96539.19;5050138;28;20220;-80
2024/04/01 07:38:01;;;;;;;11.87;3.63;;;;;;;21.45;40.50;96519.03;5050506;28;20194;-80
2024/04/01 07:40:29;;;;;;;7.90;2.80;;;;;;;21.87;39.42;96542.66;5050301;28;20200;-80
2024/04/01 07:42:55;;;;;;;6.10;2.90;;;;;;;22.01;38.06;96542.91;5050330;28;20581;-80
2024/04/01 07:45:21;;;;;;;8.97;3.30;;;;;;;22.04;37.88;96509.66;5031333;28;20199;-80
2024/04/01 07:47:47;;;;;;;6.37;3.43;;;;;;;22.68;37.28;96537.78;5043185;28;20198;-80
2024/04/01 07:50:14;;;;;;;12.63;4.60;;;;;;;22.74;36.27;96542.91;5030920;28;20595;-80
2024/04/01 07:52:42;;;;;;;13.63;3.60;;;;;;;22.92;36.48;96542.03;5030498;28;20213;-80
2024/04/01 07:55:09;;;;;;;8.40;3.27;;;;;;;22.61;36.02;96543.13;5036266;28;20590;-80
2024/04/01 07:57:36;;;;;;;7.57;3.13;;;;;;;22.43;36.84;96552.91;5050716;28;20263;-80
2024/04/01 08:00:03;;;;;;;15.03;3.60;;;;;;;;;;5043613;28;20226;-80
2024/04/01 08:02:29;;;;;;;11.17;3.90;;;;;;;22.59;36.26;96545.41;5043463;28;20194;-81
2024/04/01 08:04:55;;;;;;;11.20;3.83;;;;;;;22.47;36.59;96548.34;5036952;28;20198;-79
2024/04/01 08:07:21;;;;;;;15.80;4.07;;;;;;;22.49;36.10;96546.03;5050085;28;20661;-80
2024/04/01 08:09:48;;;;;;;13.00;4.07;;;;;;;22.41;36.37;96541.63;5043583;28;20269;-80
2024/04/01 08:12:14;;;;;;;8.67;2.77;;;;;;;22.46;36.11;96538.63;5043700;28;20264;-80
2024/04/01 08:14:42;;;;;;;10.57;3.53;;;;;;;22.84;35.39;96534.91;5050020;28;20194;-80
2024/04/01 08:17:07;;;;;;;14.33;4.03;;;;;;;23.09;35.21;96531.78;5052583;28;20194;-81
2024/04/01 08:19:34;;;;;;;11.47;3.33;;;;;;;23.44;33.47;96534.13;5054311;28;20202;-80
2024/04/01 08:22:00;;;;;;;12.00;3.47;;;;;;;23.40;33.98;96527.88;5054274;28;20248;-80
2024/04/01 08:24:27;;;;;;;10.20;4.03;;;;;;;23.61;33.91;96538.97;5054037;28;20722;-80
2024/04/01 08:26:53;;;;;;;12.63;3.83;;;;;;;24.00;33.00;96521.53;5053455;28;20209;-80
2024/04/01 08:29:19;;;;;;;9.20;3.97;;;;;;;24.51;31.30;96535.19;5053968;28;20573;-80
2024/04/01 08:31:47;;;;;;;10.00;3.67;;;;;;;24.20;31.00;96535.66;5053384;28;20221;-80
2024/04/01 08:34:13;;;;;;;12.47;3.43;;;;;;;24.95;30.57;96515.22;5053588;28;20261;-80
2024/04/01 08:36:40;;;;;;;21.57;4.60;;;;;;;24.88;29.25;96507.78;5038980;28;20199;-80
2024/04/01 08:39:07;;;;;;;15.80;3.87;;;;;;;25.03;29.63;96513.31;5033564;28;20209;-81
2024/04/01 08:41:39;;;;;;;13.00;3.40;;;;;;;25.49;29.10;96524.41;5046722;28;20577;-80
2024/04/01 08:44:13;;;;;;;51.17;26.40;;;;;;;25.65;29.54;96524.06;5034080;28;20203;-80
2024/04/01 08:46:40;;;;;;;17.47;10.90;;;;;;;25.23;30.32;96527.44;5036939;28;20193;-80
2024/04/01 08:49:12;;;;;;;19.83;7.37;;;;;;;25.30;29.78;96519.28;5053218;28;20201;-80
2024/04/01 08:51:39;;;;;;;20.77;9.63;;;;;;;25.03;31.74;96519.53;5053337;28;20217;-80
2024/04/01 08:54:07;;;;;;;17.50;5.87;;;;;;;24.83;32.43;96523.72;5053253;28;20197;-80
2024/04/01 08:56:37;;;;;;;21.13;6.13;;;;;;;25.04;32.20;96518.38;5052934;28;20208;-80
2024/04/01 08:59:04;;;;;;;13.07;5.17;;;;;;;25.55;33.47;96505.72;5053513;28;20226;-80
2024/04/01 09:01:30;;;;;;;8.37;4.47;;;;;;;25.78;31.39;96503.47;5052837;28;20194;-80
2024/04/01 09:03:57;;;;;;;13.53;4.23;;;;;;;25.56;31.14;96507.31;5053142;28;20786;-80
2024/04/01 09:06:24;;;;;;;15.93;6.37;;;;;;;25.56;31.06;96505.38;5053066;28;20190;-80
2024/04/01 09:08:54;;;;;;;10.95;4.95;;;;;;;25.62;31.76;96506.53;5053788;28;20287;-80
2024/04/01 09:11:21;;;;;;;11.63;4.28;;;;;;;25.83;31.83;96496.88;5052888;28;20244;-80
2024/04/01 09:13:49;;;;;;;13.75;4.53;;;;;;;25.81;30.76;96502.69;5052959;28;20214;-80
2024/04/01 09:16:20;;;;;;;13.65;4.65;;;;;;;25.52;31.45;96501.84;5052743;28;20201;-80
2024/04/01 09:18:47;;;;;;;15.83;5.23;;;;;;;25.93;31.46;96504.28;5052923;28;20731;-80
2024/04/01 09:21:13;;;;;;;10.85;4.50;;;;;;;25.49;30.92;96499.13;5052650;28;20292;-80
2024/04/01 09:23:43;;;;;;;9.73;4.27;;;;;;;25.09;32.22;96509.88;5038776;28;20285;-81
2024/04/01 09:26:09;;;;;;;11.80;4.63;;;;;;;25.62;31.06;96501.06;5052481;28;20692;-80
2024/04/01 09:28:36;;;;;;;15.90;4.43;;;;;;;25.41;31.50;96506.50;5038177;28;20200;-80
2024/04/01 09:31:01;;;;;;;16.07;4.87;;;;;;;25.12;32.36;96502.88;5033222;28;20218;-80
2024/04/01 09:33:29;;;;;;;15.90;4.15;;;;;;;25.59;32.27;96501.88;5045786;28;20224;-80
2024/04/01 09:35:55;;;;;;;17.60;4.27;;;;;;;25.46;32.08;96481.59;5032782;28;20201;-80
2024/04/01 09:38:22;;;;;;;10.77;4.23;;;;;;;25.84;30.92;96504.66;5046667;28;20605;-80
2024/04/01 09:40:50;;;;;;;13.40;4.17;;;;;;;26.20;29.68;96471.94;5052531;28;20202;-80
2024/04/01 09:43:23;;;;;;;17.45;4.57;;;;;;;25.80;30.68;96473.09;5052141;28;20584;-80
2024/04/01 09:45:51;;;;;;;10.60;4.32;;;;;;;26.22;30.36;96485.97;5051992;28;20204;-80
2024/04/01 09:48:18;;;;;;;11.55;4.70;;;;;;;26.59;29.57;96477.34;5052243;28;20202;-80
2024/04/01 09:50:48;;;;;;;12.93;3.78;;;;;;;26.12;30.01;96478.56;5052447;28;20218;-80
2024/04/01 09:53:15;;;;;;;18.40;4.25;;;;;;;25.57;29.72;96454.34;5052078;28;20687;-80
2024/04/01 09:55:58;;;;;;;15.15;4.45;;;;;;;26.37;30.33;96475.84;5052585;28;20546;-80
2024/04/01 09:59:00;;;;;;;12.55;4.28;;;;;;;26.43;30.51;96470.75;5051925;28;20253;-80
2024/04/01 10:01:40;;;;;;;14.93;4.35;;;;;;;26.01;29.57;96475.84;5048093;28;20225;-80
2024/04/01 10:04:45;;;;;;;10.75;3.60;;;;;;;26.20;30.52;96476.63;5052541;28;20202;-80
2024/04/01 10:07:47;;;;;;;12.23;4.13;;;;;;;25.84;29.01;96466.47;5052105;28;20231;-80
2024/04/01 10:10:53;;;;;;;15.25;3.35;;;;;;;26.08;28.38;96470.38;5041847;28;20603;-80
2024/04/01 10:14:01;;;;;;;8.70;3.40;;;;;;;25.95;26.51;96477.41;5051612;28;20661;-80
2024/04/01 10:16:58;;;;;;;15.27;4.07;;;;;;;25.98;27.17;96476.63;4977599;28;20583;-80
2024/04/01 10:19:44;;;;;;;14.38;3.95;;;;;;;26.08;26.38;96473.09;5051548;28;20209;-80
2024/04/01 10:22:52;;;;;;;23.38;4.97;;;;;;;25.89;26.06;96470.78;5051679;28;20640;-80
2024/04/01 10:25:57;;;;;;;15.37;4.70;;;;;;;26.00;26.81;96462.59;5051203;28;20209;-80
2024/04/01 10:28:51;;;;;;;13.43;4.17;;;;;;;25.89;29.09;96462.59;5038933;28;20202;-81
2024/04/01 10:31:45;;;;;;;17.03;4.83;;;;;;;25.85;28.50;96461.81;5037961;28;20221;-80
2024/04/01 10:34:50;;;;;;;12.23;4.43;;;;;;;26.24;27.86;96450.09;5051397;28;20202;-80
2024/04/01 10:37:46;;;;;;;12.07;3.80;;;;;;;26.31;29.10;96441.91;4989619;28;20207;-81
2024/04/01 10:40:27;;;;;;;12.73;4.10;;;;;;;26.17;28.10;96450.88;4988807;28;20733;-82
2024/04/01 10:43:32;;;;;;;13.00;3.45;;;;;;;25.93;29.44;96441.53;5041966;28;20217;-80
2024/04/01 10:46:34;;;;;;;8.70;3.67;;;;;;;25.52;28.89;96411.13;5041640;28;20704;-81
2024/04/01 10:49:28;;;;;;;10.43;4.10;;;;;;;25.74;29.36;96393.59;5050554;28;20225;-80
2024/04/01 10:52:33;;;;;;;13.05;3.28;;;;;;;25.51;28.26;96437.59;5034494;28;20213;-80
2024/04/01 10:55:23;;;;;;;12.30;4.43;;;;;;;25.71;29.18;96412.69;5050591;28;20197;-80
2024/04/01 10:58:11;;;;;;;21.45;4.63;;;;;;;25.70;29.12;96422.81;5050962;28;20198;-80
2024/04/01 11:01:06;;;;;;;13.85;4.35;;;;;;;25.49;30.25;96425.53;5050480;28;20714;-81
2024/04/01 11:03:59;;;;;;;9.07;3.35;;;;;;;26.06;29.39;96414.69;5050817;28;20202;-80
2024/04/01 11:06:44;;;;;;;10.65;4.00;;;;;;;25.50;29.32;96408.78;5051009;28;20221;-81
2024/04/01 11:09:29;;;;;;;9.02;3.72;;;;;;;25.28;31.11;96407.97;5050646;28;20587;-80
2024/04/01 11:12:10;;;;;;;12.77;4.63;;;;;;;25.68;31.10;96413.47;5050614;28;20714;-80
2024/04/01 11:14:39;;;;;;;12.27;4.05;;;;;;;25.89;30.92;96410.78;5050411;28;20198;-80
2024/04/01 11:17:08;;;;;;;13.23;3.67;;;;;;;25.79;30.61;96408.84;5050961;28;20638;-80
2024/04/01 11:19:52;;;;;;;29.23;4.82;;;;;;;25.75;29.91;96406.09;5050304;28;20206;-80
2024/04/01 11:22:33;;;;;;;12.90;4.07;;;;;;;25.36;29.47;96370.59;5037092;28;20237;-80
2024/04/01 11:25:11;;;;;;;8.73;3.40;;;;;;;25.61;30.76;96395.16;5039686;28;20230;-80
2024/04/01 11:28:09;;;;;;;15.40;3.72;;;;;;;25.67;30.45;96403.72;5030807;28;20661;-80
2024/04/01 11:30:36;;;;;;;14.18;3.90;;;;;;;25.66;30.12;96400.22;5034498;28;20718;-80
2024/04/01 11:33:07;;;;;;;15.25;4.40;;;;;;;25.86;30.09;96395.19;5040281;28;20269;-80
2024/04/01 11:35:45;;;;;;;15.07;4.18;;;;;;;25.68;30.09;96392.44;5030170;28;20198;-80
2024/04/01 11:38:32;;;;;;;10.82;3.90;;;;;;;26.15;29.59;96390.50;5031127;28;20202;-81
2024/04/01 11:40:59;;;;;;;17.52;4.38;;;;;;;26.41;28.71;96388.47;5040278;28;20587;-81
2024/04/01 11:43:29;;;;;;;15.38;4.15;;;;;;;26.29;29.06;96386.94;5050477;28;20264;-81